sensor_id;sensor_type;location;lat;lon;timestamp;temperature;humidity
73360;DHT22;63092;43.582;19.528;2022-11-04T00:01:41;9.10;91.90
73360;DHT22;63092;43.582;19.528;2022-11-04T00:04:08;9.10;91.90
73360;DHT22;63092;43.582;19.528;2022-11-04T00:06:35;9.10;91.80
73360;DHT22;63092;43.582;19.528;2022-11-04T00:09:02;9.10;91.80
73360;DHT22;63092;43.582;19.528;2022-11-04T00:11:28;9.00;91.80
73360;DHT22;63092;43.582;19.528;2022-11-04T00:14:13;9.00;92.00
73360;DHT22;63092;43.582;19.528;2022-11-04T00:16:39;8.90;91.70
73360;DHT22;63092;43.582;19.528;2022-11-04T00:19:23;8.90;91.70
73360;DHT22;63092;43.582;19.528;2022-11-04T00:21:49;8.80;91.90
73360;DHT22;63092;43.582;19.528;2022-11-04T00:24:48;8.80;91.90
73360;DHT22;63092;43.582;19.528;2022-11-04T00:27:39;8.80;91.90
73360;DHT22;63092;43.582;19.528;2022-11-04T00:30:24;8.80;91.90
73360;DHT22;63092;43.582;19.528;2022-11-04T00:32:50;8.80;91.70
73360;DHT22;63092;43.582;19.528;2022-11-04T00:35:34;8.70;91.90
73360;DHT22;63092;43.582;19.528;2022-11-04T00:37:59;8.70;91.90
73360;DHT22;63092;43.582;19.528;2022-11-04T00:40:25;8.80;91.90
73360;DHT22;63092;43.582;19.528;2022-11-04T00:42:51;8.70;91.90
73360;DHT22;63092;43.582;19.528;2022-11-04T00:45:16;8.70;91.70
73360;DHT22;63092;43.582;19.528;2022-11-04T00:47:42;8.70;91.50
73360;DHT22;63092;43.582;19.528;2022-11-04T00:50:08;8.70;91.60
73360;DHT22;63092;43.582;19.528;2022-11-04T00:52:33;8.70;91.60
73360;DHT22;63092;43.582;19.528;2022-11-04T00:54:59;8.70;91.60
73360;DHT22;63092;43.582;19.528;2022-11-04T00:57:25;8.60;91.70
73360;DHT22;63092;43.582;19.528;2022-11-04T00:59:51;8.60;91.70
73360;DHT22;63092;43.582;19.528;2022-11-04T01:02:16;8.60;91.80
73360;DHT22;63092;43.582;19.528;2022-11-04T01:04:42;8.50;91.90
73360;DHT22;63092;43.582;19.528;2022-11-04T01:07:08;8.60;91.90
73360;DHT22;63092;43.582;19.528;2022-11-04T01:09:33;8.50;92.00
73360;DHT22;63092;43.582;19.528;2022-11-04T01:11:59;8.50;92.00
73360;DHT22;63092;43.582;19.528;2022-11-04T01:14:25;8.50;91.80
73360;DHT22;63092;43.582;19.528;2022-11-04T01:16:51;8.50;91.80
73360;DHT22;63092;43.582;19.528;2022-11-04T01:19:17;8.50;92.00
73360;DHT22;63092;43.582;19.528;2022-11-04T01:21:42;8.40;92.10
73360;DHT22;63092;43.582;19.528;2022-11-04T01:24:08;8.30;92.20
73360;DHT22;63092;43.582;19.528;2022-11-04T01:26:34;8.30;92.40
73360;DHT22;63092;43.582;19.528;2022-11-04T01:29:00;8.20;92.50
73360;DHT22;63092;43.582;19.528;2022-11-04T01:31:28;8.20;92.50
73360;DHT22;63092;43.582;19.528;2022-11-04T01:33:55;8.20;92.40
73360;DHT22;63092;43.582;19.528;2022-11-04T01:36:22;8.20;92.40
73360;DHT22;63092;43.582;19.528;2022-11-04T01:38:48;8.10;92.30
73360;DHT22;63092;43.582;19.528;2022-11-04T01:41:22;8.10;92.20
73360;DHT22;63092;43.582;19.528;2022-11-04T01:43:57;8.10;92.30
73360;DHT22;63092;43.582;19.528;2022-11-04T01:46:44;8.10;92.30
73360;DHT22;63092;43.582;19.528;2022-11-04T01:49:32;8.10;92.10
73360;DHT22;63092;43.582;19.528;2022-11-04T01:52:10;8.20;91.90
73360;DHT22;63092;43.582;19.528;2022-11-04T01:54:38;8.20;91.70
73360;DHT22;63092;43.582;19.528;2022-11-04T01:57:06;8.10;92.10
73360;DHT22;63092;43.582;19.528;2022-11-04T01:59:36;8.00;91.90
73360;DHT22;63092;43.582;19.528;2022-11-04T02:02:03;8.00;92.00
73360;DHT22;63092;43.582;19.528;2022-11-04T02:04:29;8.00;92.00
73360;DHT22;63092;43.582;19.528;2022-11-04T02:06:58;8.00;92.20
73360;DHT22;63092;43.582;19.528;2022-11-04T02:09:28;7.90;92.20
73360;DHT22;63092;43.582;19.528;2022-11-04T02:11:55;7.90;92.20
73360;DHT22;63092;43.582;19.528;2022-11-04T02:14:39;7.80;92.30
73360;DHT22;63092;43.582;19.528;2022-11-04T02:25:30;7.70;92.40
73360;DHT22;63092;43.582;19.528;2022-11-04T02:30:52;7.90;92.20
73360;DHT22;63092;43.582;19.528;2022-11-04T02:33:41;7.80;91.80
73360;DHT22;63092;43.582;19.528;2022-11-04T02:38:45;7.70;92.60
73360;DHT22;63092;43.582;19.528;2022-11-04T02:41:35;7.70;92.70
73360;DHT22;63092;43.582;19.528;2022-11-04T02:50:08;7.40;93.10
73360;DHT22;63092;43.582;19.528;2022-11-04T02:55:37;7.30;92.90
73360;DHT22;63092;43.582;19.528;2022-11-04T02:58:04;7.30;93.00
73360;DHT22;63092;43.582;19.528;2022-11-04T03:00:32;7.20;93.30
73360;DHT22;63092;43.582;19.528;2022-11-04T03:03:03;7.30;93.00
73360;DHT22;63092;43.582;19.528;2022-11-04T03:05:34;7.30;93.20
73360;DHT22;63092;43.582;19.528;2022-11-04T03:08:08;7.20;93.10
73360;DHT22;63092;43.582;19.528;2022-11-04T03:10:39;7.10;93.10
73360;DHT22;63092;43.582;19.528;2022-11-04T03:13:15;7.10;93.10
73360;DHT22;63092;43.582;19.528;2022-11-04T03:15:50;7.10;93.00
73360;DHT22;63092;43.582;19.528;2022-11-04T03:20:57;7.00;93.00
73360;DHT22;63092;43.582;19.528;2022-11-04T03:23:26;7.00;93.10
73360;DHT22;63092;43.582;19.528;2022-11-04T03:25:57;7.10;93.00
73360;DHT22;63092;43.582;19.528;2022-11-04T03:28:45;7.10;93.10
73360;DHT22;63092;43.582;19.528;2022-11-04T03:31:22;7.10;93.10
73360;DHT22;63092;43.582;19.528;2022-11-04T03:33:51;7.10;93.00
73360;DHT22;63092;43.582;19.528;2022-11-04T03:36:18;7.10;92.80
73360;DHT22;63092;43.582;19.528;2022-11-04T03:38:46;7.20;92.70
73360;DHT22;63092;43.582;19.528;2022-11-04T03:41:18;7.20;92.60
73360;DHT22;63092;43.582;19.528;2022-11-04T03:43:46;7.20;92.60
73360;DHT22;63092;43.582;19.528;2022-11-04T03:46:12;7.10;92.90
73360;DHT22;63092;43.582;19.528;2022-11-04T03:48:38;7.10;93.00
73360;DHT22;63092;43.582;19.528;2022-11-04T03:51:04;7.10;93.10
73360;DHT22;63092;43.582;19.528;2022-11-04T03:53:30;7.10;93.20
73360;DHT22;63092;43.582;19.528;2022-11-04T04:01:43;6.80;93.10
73360;DHT22;63092;43.582;19.528;2022-11-04T04:06:52;6.60;93.50
73360;DHT22;63092;43.582;19.528;2022-11-04T04:09:33;6.60;93.50
73360;DHT22;63092;43.582;19.528;2022-11-04T04:14:42;6.60;93.30
73360;DHT22;63092;43.582;19.528;2022-11-04T04:20:06;6.60;93.20
73360;DHT22;63092;43.582;19.528;2022-11-04T04:22:39;6.50;93.60
73360;DHT22;63092;43.582;19.528;2022-11-04T04:25:08;6.60;93.50
73360;DHT22;63092;43.582;19.528;2022-11-04T04:27:56;6.60;93.50
73360;DHT22;63092;43.582;19.528;2022-11-04T04:30:22;6.50;93.70
73360;DHT22;63092;43.582;19.528;2022-11-04T04:33:05;6.50;94.00
73360;DHT22;63092;43.582;19.528;2022-11-04T04:35:38;6.40;94.00
73360;DHT22;63092;43.582;19.528;2022-11-04T04:38:23;6.50;93.80
73360;DHT22;63092;43.582;19.528;2022-11-04T04:41:20;6.50;93.80
73360;DHT22;63092;43.582;19.528;2022-11-04T04:44:23;6.60;93.70
73360;DHT22;63092;43.582;19.528;2022-11-04T04:47:11;6.50;93.90
73360;DHT22;63092;43.582;19.528;2022-11-04T04:49:51;6.30;94.10
73360;DHT22;63092;43.582;19.528;2022-11-04T04:52:16;6.30;94.30
73360;DHT22;63092;43.582;19.528;2022-11-04T04:54:43;6.30;94.20
73360;DHT22;63092;43.582;19.528;2022-11-04T04:57:09;6.50;93.80
73360;DHT22;63092;43.582;19.528;2022-11-04T04:59:35;6.60;93.70
73360;DHT22;63092;43.582;19.528;2022-11-04T05:02:00;6.60;93.70
73360;DHT22;63092;43.582;19.528;2022-11-04T05:04:26;6.50;93.90
73360;DHT22;63092;43.582;19.528;2022-11-04T05:06:52;6.40;94.10
73360;DHT22;63092;43.582;19.528;2022-11-04T05:09:17;6.40;94.30
73360;DHT22;63092;43.582;19.528;2022-11-04T05:11:43;6.30;94.50
73360;DHT22;63092;43.582;19.528;2022-11-04T05:14:09;6.40;94.60
73360;DHT22;63092;43.582;19.528;2022-11-04T05:16:34;6.30;94.50
73360;DHT22;63092;43.582;19.528;2022-11-04T05:19:00;6.30;94.50
73360;DHT22;63092;43.582;19.528;2022-11-04T05:21:25;6.30;94.60
73360;DHT22;63092;43.582;19.528;2022-11-04T05:23:51;6.10;94.80
73360;DHT22;63092;43.582;19.528;2022-11-04T05:26:17;6.20;95.00
73360;DHT22;63092;43.582;19.528;2022-11-04T05:28:42;6.20;94.90
73360;DHT22;63092;43.582;19.528;2022-11-04T05:31:08;6.20;94.80
73360;DHT22;63092;43.582;19.528;2022-11-04T05:33:34;6.30;94.80
73360;DHT22;63092;43.582;19.528;2022-11-04T05:36:26;6.30;94.70
73360;DHT22;63092;43.582;19.528;2022-11-04T05:38:53;6.30;94.60
73360;DHT22;63092;43.582;19.528;2022-11-04T05:41:20;6.30;94.70
73360;DHT22;63092;43.582;19.528;2022-11-04T05:44:02;6.40;94.80
73360;DHT22;63092;43.582;19.528;2022-11-04T05:46:29;6.40;94.50
73360;DHT22;63092;43.582;19.528;2022-11-04T05:48:55;6.50;94.60
73360;DHT22;63092;43.582;19.528;2022-11-04T05:51:23;6.50;94.60
73360;DHT22;63092;43.582;19.528;2022-11-04T05:53:50;6.40;94.70
73360;DHT22;63092;43.582;19.528;2022-11-04T05:56:16;6.40;94.90
73360;DHT22;63092;43.582;19.528;2022-11-04T05:58:41;6.50;94.70
73360;DHT22;63092;43.582;19.528;2022-11-04T06:01:30;6.50;94.60
73360;DHT22;63092;43.582;19.528;2022-11-04T06:03:57;6.40;95.00
73360;DHT22;63092;43.582;19.528;2022-11-04T06:06:25;6.40;94.80
73360;DHT22;63092;43.582;19.528;2022-11-04T06:08:51;6.40;94.90
73360;DHT22;63092;43.582;19.528;2022-11-04T06:11:18;6.50;94.80
73360;DHT22;63092;43.582;19.528;2022-11-04T06:13:44;6.60;94.70
73360;DHT22;63092;43.582;19.528;2022-11-04T06:16:10;6.70;94.50
73360;DHT22;63092;43.582;19.528;2022-11-04T06:18:36;6.80;94.30
73360;DHT22;63092;43.582;19.528;2022-11-04T06:23:40;6.90;94.10
73360;DHT22;63092;43.582;19.528;2022-11-04T06:26:07;7.00;94.00
73360;DHT22;63092;43.582;19.528;2022-11-04T06:28:33;7.00;94.10
73360;DHT22;63092;43.582;19.528;2022-11-04T06:31:00;7.10;93.90
73360;DHT22;63092;43.582;19.528;2022-11-04T06:33:27;7.10;93.70
73360;DHT22;63092;43.582;19.528;2022-11-04T06:35:59;7.10;93.80
73360;DHT22;63092;43.582;19.528;2022-11-04T06:38:27;6.90;94.20
73360;DHT22;63092;43.582;19.528;2022-11-04T06:40:53;6.90;94.40
73360;DHT22;63092;43.582;19.528;2022-11-04T06:43:19;6.90;94.50
73360;DHT22;63092;43.582;19.528;2022-11-04T06:45:55;6.80;94.40
73360;DHT22;63092;43.582;19.528;2022-11-04T06:48:20;6.70;94.80
73360;DHT22;63092;43.582;19.528;2022-11-04T06:50:46;6.80;95.00
73360;DHT22;63092;43.582;19.528;2022-11-04T06:53:12;6.70;95.10
73360;DHT22;63092;43.582;19.528;2022-11-04T06:55:37;6.70;95.30
73360;DHT22;63092;43.582;19.528;2022-11-04T06:58:03;6.80;95.20
73360;DHT22;63092;43.582;19.528;2022-11-04T07:00:29;6.90;95.10
73360;DHT22;63092;43.582;19.528;2022-11-04T07:02:54;6.80;95.30
73360;DHT22;63092;43.582;19.528;2022-11-04T07:05:20;6.90;95.30
73360;DHT22;63092;43.582;19.528;2022-11-04T07:07:46;6.90;95.30
73360;DHT22;63092;43.582;19.528;2022-11-04T07:10:11;7.10;95.10
73360;DHT22;63092;43.582;19.528;2022-11-04T07:12:37;7.30;95.00
73360;DHT22;63092;43.582;19.528;2022-11-04T07:15:03;7.30;94.30
73360;DHT22;63092;43.582;19.528;2022-11-04T07:17:29;7.30;94.20
73360;DHT22;63092;43.582;19.528;2022-11-04T07:19:55;7.30;94.40
73360;DHT22;63092;43.582;19.528;2022-11-04T07:22:20;7.40;94.30
73360;DHT22;63092;43.582;19.528;2022-11-04T07:24:46;7.60;94.10
73360;DHT22;63092;43.582;19.528;2022-11-04T07:27:12;7.80;93.60
73360;DHT22;63092;43.582;19.528;2022-11-04T07:29:37;7.80;93.60
73360;DHT22;63092;43.582;19.528;2022-11-04T07:32:03;7.80;93.70
73360;DHT22;63092;43.582;19.528;2022-11-04T07:34:29;7.90;93.80
73360;DHT22;63092;43.582;19.528;2022-11-04T07:36:55;7.90;93.90
73360;DHT22;63092;43.582;19.528;2022-11-04T07:39:20;7.80;94.20
73360;DHT22;63092;43.582;19.528;2022-11-04T07:41:46;7.80;94.30
73360;DHT22;63092;43.582;19.528;2022-11-04T07:44:12;7.90;94.30
73360;DHT22;63092;43.582;19.528;2022-11-04T07:46:38;7.80;94.40
73360;DHT22;63092;43.582;19.528;2022-11-04T07:49:03;7.70;94.60
73360;DHT22;63092;43.582;19.528;2022-11-04T07:51:29;7.70;94.60
73360;DHT22;63092;43.582;19.528;2022-11-04T07:53:58;7.60;94.90
73360;DHT22;63092;43.582;19.528;2022-11-04T07:56:24;7.70;94.90
73360;DHT22;63092;43.582;19.528;2022-11-04T07:58:50;7.70;95.00
73360;DHT22;63092;43.582;19.528;2022-11-04T08:01:18;7.70;95.00
73360;DHT22;63092;43.582;19.528;2022-11-04T08:03:45;7.60;95.30
73360;DHT22;63092;43.582;19.528;2022-11-04T08:06:13;7.60;95.50
73360;DHT22;63092;43.582;19.528;2022-11-04T08:08:39;7.50;95.60
73360;DHT22;63092;43.582;19.528;2022-11-04T08:11:10;7.60;95.60
73360;DHT22;63092;43.582;19.528;2022-11-04T08:13:37;7.60;95.50
73360;DHT22;63092;43.582;19.528;2022-11-04T08:16:04;7.60;95.50
73360;DHT22;63092;43.582;19.528;2022-11-04T08:18:32;7.60;95.40
73360;DHT22;63092;43.582;19.528;2022-11-04T08:20:58;7.70;95.40
73360;DHT22;63092;43.582;19.528;2022-11-04T08:23:24;7.70;95.40
73360;DHT22;63092;43.582;19.528;2022-11-04T08:25:50;7.80;95.20
73360;DHT22;63092;43.582;19.528;2022-11-04T08:28:16;7.90;95.10
73360;DHT22;63092;43.582;19.528;2022-11-04T08:33:16;7.90;95.20
73360;DHT22;63092;43.582;19.528;2022-11-04T08:35:42;7.80;95.40
73360;DHT22;63092;43.582;19.528;2022-11-04T08:38:08;7.90;95.60
73360;DHT22;63092;43.582;19.528;2022-11-04T08:40:35;7.80;95.60
73360;DHT22;63092;43.582;19.528;2022-11-04T08:43:01;7.70;95.90
73360;DHT22;63092;43.582;19.528;2022-11-04T08:45:27;7.70;95.90
73360;DHT22;63092;43.582;19.528;2022-11-04T08:47:53;7.70;95.90
73360;DHT22;63092;43.582;19.528;2022-11-04T08:50:19;7.80;95.70
73360;DHT22;63092;43.582;19.528;2022-11-04T08:52:45;7.70;95.80
73360;DHT22;63092;43.582;19.528;2022-11-04T08:55:10;7.70;95.90
73360;DHT22;63092;43.582;19.528;2022-11-04T08:57:36;7.70;95.90
73360;DHT22;63092;43.582;19.528;2022-11-04T09:00:03;7.70;95.90
73360;DHT22;63092;43.582;19.528;2022-11-04T09:02:29;7.90;95.80
73360;DHT22;63092;43.582;19.528;2022-11-04T09:04:54;8.00;95.50
73360;DHT22;63092;43.582;19.528;2022-11-04T09:07:20;8.20;95.40
73360;DHT22;63092;43.582;19.528;2022-11-04T09:09:46;8.10;95.20
73360;DHT22;63092;43.582;19.528;2022-11-04T09:12:12;8.30;95.10
73360;DHT22;63092;43.582;19.528;2022-11-04T09:14:38;8.20;95.20
73360;DHT22;63092;43.582;19.528;2022-11-04T09:17:04;8.30;95.00
73360;DHT22;63092;43.582;19.528;2022-11-04T09:19:29;8.50;94.70
73360;DHT22;63092;43.582;19.528;2022-11-04T09:21:55;8.60;94.50
73360;DHT22;63092;43.582;19.528;2022-11-04T09:24:21;8.80;94.10
73360;DHT22;63092;43.582;19.528;2022-11-04T09:26:46;8.90;94.00
73360;DHT22;63092;43.582;19.528;2022-11-04T09:29:12;8.90;93.90
73360;DHT22;63092;43.582;19.528;2022-11-04T09:31:38;8.90;93.80
73360;DHT22;63092;43.582;19.528;2022-11-04T09:34:04;9.00;93.80
73360;DHT22;63092;43.582;19.528;2022-11-04T09:36:29;9.10;93.70
73360;DHT22;63092;43.582;19.528;2022-11-04T09:38:55;9.10;93.80
73360;DHT22;63092;43.582;19.528;2022-11-04T09:46:48;9.20;93.70
73360;DHT22;63092;43.582;19.528;2022-11-04T09:49:16;9.30;93.70
73360;DHT22;63092;43.582;19.528;2022-11-04T09:51:42;9.30;93.40
73360;DHT22;63092;43.582;19.528;2022-11-04T09:56:44;9.40;93.40
73360;DHT22;63092;43.582;19.528;2022-11-04T09:59:20;9.40;93.20
73360;DHT22;63092;43.582;19.528;2022-11-04T10:11:06;9.90;92.20
73360;DHT22;63092;43.582;19.528;2022-11-04T10:19:25;10.50;91.50
73360;DHT22;63092;43.582;19.528;2022-11-04T10:22:03;10.70;91.20
73360;DHT22;63092;43.582;19.528;2022-11-04T10:24:41;10.80;90.80
73360;DHT22;63092;43.582;19.528;2022-11-04T10:27:24;11.00;90.80
73360;DHT22;63092;43.582;19.528;2022-11-04T10:30:01;11.20;90.30
73360;DHT22;63092;43.582;19.528;2022-11-04T10:35:49;11.80;88.40
73360;DHT22;63092;43.582;19.528;2022-11-04T10:38:20;11.80;88.00
73360;DHT22;63092;43.582;19.528;2022-11-04T10:40:52;12.00;87.60
73360;DHT22;63092;43.582;19.528;2022-11-04T10:43:36;12.10;87.30
73360;DHT22;63092;43.582;19.528;2022-11-04T10:46:25;12.30;86.80
73360;DHT22;63092;43.582;19.528;2022-11-04T10:49:47;12.50;86.50
73360;DHT22;63092;43.582;19.528;2022-11-04T10:51:54;12.80;85.30
73360;DHT22;63092;43.582;19.528;2022-11-04T10:54:21;13.10;84.60
73360;DHT22;63092;43.582;19.528;2022-11-04T10:56:50;13.20;84.30
73360;DHT22;63092;43.582;19.528;2022-11-04T10:59:29;13.30;83.90
73360;DHT22;63092;43.582;19.528;2022-11-04T11:02:00;13.30;83.70
73360;DHT22;63092;43.582;19.528;2022-11-04T11:04:31;13.40;83.30
73360;DHT22;63092;43.582;19.528;2022-11-04T11:06:59;13.30;83.70
73360;DHT22;63092;43.582;19.528;2022-11-04T11:09:50;13.40;83.50
73360;DHT22;63092;43.582;19.528;2022-11-04T11:12:20;13.40;83.30
73360;DHT22;63092;43.582;19.528;2022-11-04T11:14:55;13.50;83.40
73360;DHT22;63092;43.582;19.528;2022-11-04T11:17:23;13.60;83.30
73360;DHT22;63092;43.582;19.528;2022-11-04T11:19:57;13.70;82.80
73360;DHT22;63092;43.582;19.528;2022-11-04T11:27:50;14.20;81.70
73360;DHT22;63092;43.582;19.528;2022-11-04T11:30:25;14.30;80.90
73360;DHT22;63092;43.582;19.528;2022-11-04T11:35:53;14.70;80.10
73360;DHT22;63092;43.582;19.528;2022-11-04T11:38:24;14.90;79.70
73360;DHT22;63092;43.582;19.528;2022-11-04T11:41:02;15.10;79.40
73360;DHT22;63092;43.582;19.528;2022-11-04T11:43:31;15.10;79.60
73360;DHT22;63092;43.582;19.528;2022-11-04T11:45:57;15.30;80.30
73360;DHT22;63092;43.582;19.528;2022-11-04T11:48:42;15.50;79.10
73360;DHT22;63092;43.582;19.528;2022-11-04T11:51:13;15.80;77.80
73360;DHT22;63092;43.582;19.528;2022-11-04T11:53:41;16.10;76.90
73360;DHT22;63092;43.582;19.528;2022-11-04T11:56:31;16.50;76.50
73360;DHT22;63092;43.582;19.528;2022-11-04T11:59:05;17.20;73.70
73360;DHT22;63092;43.582;19.528;2022-11-04T12:01:44;17.80;70.60
73360;DHT22;63092;43.582;19.528;2022-11-04T12:04:11;18.00;69.60
73360;DHT22;63092;43.582;19.528;2022-11-04T12:09:24;18.70;66.90
73360;DHT22;63092;43.582;19.528;2022-11-04T12:20:40;18.70;65.10
73360;DHT22;63092;43.582;19.528;2022-11-04T12:44:31;18.90;63.50
73360;DHT22;63092;43.582;19.528;2022-11-04T12:50:10;19.30;62.90
73360;DHT22;63092;43.582;19.528;2022-11-04T12:55:29;19.30;62.00
73360;DHT22;63092;43.582;19.528;2022-11-04T13:01:00;19.50;62.60
73360;DHT22;63092;43.582;19.528;2022-11-04T13:08:38;19.50;62.00
73360;DHT22;63092;43.582;19.528;2022-11-04T13:14:19;19.40;62.20
73360;DHT22;63092;43.582;19.528;2022-11-04T13:16:50;19.30;62.30
73360;DHT22;63092;43.582;19.528;2022-11-04T13:21:46;19.30;62.10
73360;DHT22;63092;43.582;19.528;2022-11-04T13:24:21;19.20;62.40
73360;DHT22;63092;43.582;19.528;2022-11-04T13:26:50;19.10;62.70
73360;DHT22;63092;43.582;19.528;2022-11-04T13:29:18;19.00;62.50
73360;DHT22;63092;43.582;19.528;2022-11-04T13:31:51;19.20;62.00
73360;DHT22;63092;43.582;19.528;2022-11-04T13:37:32;19.10;62.80
73360;DHT22;63092;43.582;19.528;2022-11-04T13:40:12;19.30;60.50
73360;DHT22;63092;43.582;19.528;2022-11-04T13:45:51;19.40;60.20
73360;DHT22;63092;43.582;19.528;2022-11-04T13:48:20;19.30;60.40
73360;DHT22;63092;43.582;19.528;2022-11-04T13:50:59;19.20;60.80
73360;DHT22;63092;43.582;19.528;2022-11-04T13:56:06;19.20;63.10
73360;DHT22;63092;43.582;19.528;2022-11-04T13:58:32;19.10;63.70
73360;DHT22;63092;43.582;19.528;2022-11-04T14:01:27;19.00;63.70
73360;DHT22;63092;43.582;19.528;2022-11-04T14:04:17;19.00;63.60
73360;DHT22;63092;43.582;19.528;2022-11-04T14:07:17;18.90;63.70
73360;DHT22;63092;43.582;19.528;2022-11-04T14:14:50;18.70;65.90
73360;DHT22;63092;43.582;19.528;2022-11-04T14:25:32;18.50;66.30
73360;DHT22;63092;43.582;19.528;2022-11-04T14:28:00;18.40;66.50
73360;DHT22;63092;43.582;19.528;2022-11-04T14:33:20;18.50;66.70
73360;DHT22;63092;43.582;19.528;2022-11-04T14:35:49;18.60;65.90
73360;DHT22;63092;43.582;19.528;2022-11-04T14:38:32;18.50;66.50
73360;DHT22;63092;43.582;19.528;2022-11-04T14:41:12;18.50;66.60
73360;DHT22;63092;43.582;19.528;2022-11-04T14:43:41;18.50;67.00
73360;DHT22;63092;43.582;19.528;2022-11-04T14:46:07;18.30;67.40
73360;DHT22;63092;43.582;19.528;2022-11-04T14:48:33;18.20;67.70
73360;DHT22;63092;43.582;19.528;2022-11-04T14:51:00;18.30;68.00
73360;DHT22;63092;43.582;19.528;2022-11-04T14:53:35;18.20;68.50
73360;DHT22;63092;43.582;19.528;2022-11-04T14:56:15;18.20;69.00
73360;DHT22;63092;43.582;19.528;2022-11-04T14:59:21;18.10;69.40
73360;DHT22;63092;43.582;19.528;2022-11-04T15:01:48;18.20;68.80
73360;DHT22;63092;43.582;19.528;2022-11-04T15:07:01;18.20;69.00
73360;DHT22;63092;43.582;19.528;2022-11-04T15:09:39;18.10;69.10
73360;DHT22;63092;43.582;19.528;2022-11-04T15:14:53;18.10;69.60
73360;DHT22;63092;43.582;19.528;2022-11-04T15:17:20;18.10;69.80
73360;DHT22;63092;43.582;19.528;2022-11-04T15:19:52;18.00;70.30
73360;DHT22;63092;43.582;19.528;2022-11-04T15:22:19;18.00;70.70
73360;DHT22;63092;43.582;19.528;2022-11-04T15:24:45;17.90;71.10
73360;DHT22;63092;43.582;19.528;2022-11-04T15:27:16;17.90;71.20
73360;DHT22;63092;43.582;19.528;2022-11-04T15:29:57;17.90;71.10
73360;DHT22;63092;43.582;19.528;2022-11-04T15:32:24;17.90;71.60
73360;DHT22;63092;43.582;19.528;2022-11-04T15:34:51;17.90;71.30
73360;DHT22;63092;43.582;19.528;2022-11-04T15:37:18;17.90;71.50
73360;DHT22;63092;43.582;19.528;2022-11-04T15:39:46;17.90;71.80
73360;DHT22;63092;43.582;19.528;2022-11-04T15:42:20;17.80;72.40
73360;DHT22;63092;43.582;19.528;2022-11-04T15:51:04;17.90;72.80
73360;DHT22;63092;43.582;19.528;2022-11-04T15:53:38;17.90;72.90
73360;DHT22;63092;43.582;19.528;2022-11-04T15:56:14;17.80;72.90
73360;DHT22;63092;43.582;19.528;2022-11-04T15:58:41;17.80;73.10
73360;DHT22;63092;43.582;19.528;2022-11-04T16:01:12;17.80;73.10
73360;DHT22;63092;43.582;19.528;2022-11-04T16:03:39;17.80;73.80
73360;DHT22;63092;43.582;19.528;2022-11-04T16:06:07;17.80;73.80
73360;DHT22;63092;43.582;19.528;2022-11-04T16:08:33;17.80;73.90
73360;DHT22;63092;43.582;19.528;2022-11-04T16:11:18;17.80;73.90
73360;DHT22;63092;43.582;19.528;2022-11-04T16:13:45;17.80;74.30
73360;DHT22;63092;43.582;19.528;2022-11-04T16:16:21;17.80;74.40
73360;DHT22;63092;43.582;19.528;2022-11-04T16:23:50;17.80;75.10
73360;DHT22;63092;43.582;19.528;2022-11-04T16:26:27;17.80;75.10
73360;DHT22;63092;43.582;19.528;2022-11-04T16:28:56;17.70;75.50
73360;DHT22;63092;43.582;19.528;2022-11-04T16:31:33;17.60;75.60
73360;DHT22;63092;43.582;19.528;2022-11-04T16:33:59;17.60;75.80
73360;DHT22;63092;43.582;19.528;2022-11-04T16:36:25;17.60;75.80
73360;DHT22;63092;43.582;19.528;2022-11-04T16:38:59;17.60;75.70
73360;DHT22;63092;43.582;19.528;2022-11-04T16:41:31;17.50;75.90
73360;DHT22;63092;43.582;19.528;2022-11-04T16:43:57;17.60;75.50
73360;DHT22;63092;43.582;19.528;2022-11-04T16:46:24;17.60;75.70
73360;DHT22;63092;43.582;19.528;2022-11-04T16:48:49;17.60;75.40
73360;DHT22;63092;43.582;19.528;2022-11-04T16:51:20;17.60;75.80
73360;DHT22;63092;43.582;19.528;2022-11-04T16:53:53;17.60;75.90
73360;DHT22;63092;43.582;19.528;2022-11-04T16:56:23;17.60;76.20
73360;DHT22;63092;43.582;19.528;2022-11-04T16:58:50;17.60;76.20
73360;DHT22;63092;43.582;19.528;2022-11-04T17:01:15;17.60;76.30
73360;DHT22;63092;43.582;19.528;2022-11-04T17:03:43;17.60;76.00
73360;DHT22;63092;43.582;19.528;2022-11-04T17:06:11;17.50;76.50
73360;DHT22;63092;43.582;19.528;2022-11-04T17:08:37;17.60;76.20
73360;DHT22;63092;43.582;19.528;2022-11-04T17:11:04;17.60;76.10
73360;DHT22;63092;43.582;19.528;2022-11-04T17:13:30;17.60;76.40
73360;DHT22;63092;43.582;19.528;2022-11-04T17:15:56;17.60;76.50
73360;DHT22;63092;43.582;19.528;2022-11-04T17:18:21;17.50;76.70
73360;DHT22;63092;43.582;19.528;2022-11-04T17:20:53;17.50;76.90
73360;DHT22;63092;43.582;19.528;2022-11-04T17:23:20;17.50;77.20
73360;DHT22;63092;43.582;19.528;2022-11-04T17:25:46;17.50;77.20
73360;DHT22;63092;43.582;19.528;2022-11-04T17:28:12;17.50;77.10
73360;DHT22;63092;43.582;19.528;2022-11-04T17:30:42;17.50;76.90
73360;DHT22;63092;43.582;19.528;2022-11-04T17:33:12;17.50;77.10
73360;DHT22;63092;43.582;19.528;2022-11-04T17:35:38;17.60;76.70
73360;DHT22;63092;43.582;19.528;2022-11-04T17:38:05;17.50;76.90
73360;DHT22;63092;43.582;19.528;2022-11-04T17:40:31;17.60;76.40
73360;DHT22;63092;43.582;19.528;2022-11-04T17:42:57;17.60;76.80
73360;DHT22;63092;43.582;19.528;2022-11-04T17:45:41;17.60;76.70
73360;DHT22;63092;43.582;19.528;2022-11-04T17:48:08;17.60;76.50
73360;DHT22;63092;43.582;19.528;2022-11-04T17:50:37;17.50;76.80
73360;DHT22;63092;43.582;19.528;2022-11-04T17:53:03;17.50;77.10
73360;DHT22;63092;43.582;19.528;2022-11-04T17:55:29;17.50;77.50
73360;DHT22;63092;43.582;19.528;2022-11-04T17:57:54;17.50;77.50
73360;DHT22;63092;43.582;19.528;2022-11-04T18:00:21;17.50;77.80
73360;DHT22;63092;43.582;19.528;2022-11-04T18:02:53;17.50;77.40
73360;DHT22;63092;43.582;19.528;2022-11-04T18:05:19;17.50;77.60
73360;DHT22;63092;43.582;19.528;2022-11-04T18:07:45;17.40;77.60
73360;DHT22;63092;43.582;19.528;2022-11-04T18:10:10;17.50;78.10
73360;DHT22;63092;43.582;19.528;2022-11-04T18:12:36;17.50;77.50
73360;DHT22;63092;43.582;19.528;2022-11-04T18:15:11;17.50;77.00
73360;DHT22;63092;43.582;19.528;2022-11-04T18:17:41;17.50;77.10
73360;DHT22;63092;43.582;19.528;2022-11-04T18:20:09;17.50;77.10
73360;DHT22;63092;43.582;19.528;2022-11-04T18:22:36;17.50;77.30
73360;DHT22;63092;43.582;19.528;2022-11-04T18:25:04;17.40;77.40
73360;DHT22;63092;43.582;19.528;2022-11-04T18:27:30;17.40;77.50
73360;DHT22;63092;43.582;19.528;2022-11-04T18:29:55;17.40;78.30
73360;DHT22;63092;43.582;19.528;2022-11-04T18:32:21;17.50;77.90
73360;DHT22;63092;43.582;19.528;2022-11-04T18:34:48;17.50;77.30
73360;DHT22;63092;43.582;19.528;2022-11-04T18:37:15;17.50;77.30